createdAt,value
2023-01-19T00:00:53.896Z,88.49
2023-01-19T00:03:21.920Z,88.84
2023-01-19T00:05:49.202Z,89.73
2023-01-19T00:08:17.166Z,90.16
2023-01-19T00:10:46.485Z,90.09
2023-01-19T00:13:14.999Z,90.67
2023-01-19T00:15:42.157Z,89.99
2023-01-19T00:18:10.835Z,90.61
2023-01-19T00:20:39.247Z,89.58
2023-01-19T00:23:08.411Z,90.85
2023-01-19T00:25:36.161Z,90.82
2023-01-19T00:28:03.120Z,90.50
2023-01-19T00:30:30.135Z,88.90
2023-01-19T00:32:57.141Z,89.52
2023-01-19T00:35:24.332Z,88.51
2023-01-19T00:37:51.378Z,89.29
2023-01-19T00:40:18.458Z,88.79
2023-01-19T00:42:46.144Z,88.25
2023-01-19T00:45:24.355Z,87.61
2023-01-19T00:47:57.224Z,86.59
2023-01-19T00:50:29.624Z,88.31
2023-01-19T00:52:58.056Z,88.97
2023-01-19T00:55:25.141Z,88.93
2023-01-19T00:57:52.055Z,88.56
2023-01-19T01:00:20.157Z,88.38
2023-01-19T01:02:48.299Z,89.49
2023-01-19T01:05:16.351Z,88.76
2023-01-19T01:07:45.492Z,88.14
2023-01-19T01:10:16.881Z,88.37
2023-01-19T01:12:55.954Z,89.62
2023-01-19T01:15:31.087Z,90.55
2023-01-19T01:17:58.059Z,89.42
2023-01-19T01:20:28.158Z,89.44
2023-01-19T01:22:56.463Z,88.93
2023-01-19T01:25:25.109Z,90.42
2023-01-19T01:27:52.674Z,89.42
2023-01-19T01:30:20.516Z,90.56
2023-01-19T01:32:47.474Z,90.87
2023-01-19T01:35:15.024Z,90.65
2023-01-19T01:37:43.190Z,91.21
2023-01-19T01:40:13.455Z,91.00
2023-01-19T01:42:40.773Z,91.15
2023-01-19T01:45:38.537Z,90.76
2023-01-19T01:48:10.704Z,90.60
2023-01-19T01:51:04.111Z,90.09
2023-01-19T01:53:34.141Z,90.17
2023-01-19T01:56:04.778Z,91.30
2023-01-19T01:58:33.155Z,90.58
2023-01-19T02:01:18.611Z,90.46
2023-01-19T02:03:46.014Z,89.21
2023-01-19T02:06:14.842Z,90.59
2023-01-19T02:09:00.297Z,90.03
2023-01-19T02:11:47.638Z,89.38
2023-01-19T02:14:22.127Z,90.47
2023-01-19T02:16:49.491Z,91.43
2023-01-19T02:19:24.341Z,90.58
2023-01-19T02:22:23.975Z,90.71
2023-01-19T02:24:52.114Z,89.60
2023-01-19T02:27:20.429Z,90.46
2023-01-19T02:29:50.084Z,89.95
2023-01-19T02:32:19.897Z,90.16
2023-01-19T02:34:49.951Z,90.04
2023-01-19T02:37:21.740Z,89.81
2023-01-19T02:40:06.813Z,91.74
2023-01-19T02:42:40.085Z,91.17
2023-01-19T02:45:09.845Z,91.50
2023-01-19T02:47:43.534Z,92.27
2023-01-19T02:50:46.264Z,92.09
2023-01-19T02:53:30.706Z,92.90
2023-01-19T02:56:11.432Z,91.43
2023-01-19T02:59:05.055Z,92.79
2023-01-19T03:01:57.273Z,91.51
2023-01-19T03:04:29.285Z,90.31
2023-01-19T03:07:03.742Z,91.04
2023-01-19T03:09:58.304Z,90.82
2023-01-19T03:12:44.818Z,91.01
2023-01-19T03:15:29.178Z,91.48
2023-01-19T03:18:01.011Z,91.09
2023-01-19T03:20:29.532Z,91.29
2023-01-19T03:23:04.737Z,92.18
2023-01-19T03:25:37.506Z,91.91
2023-01-19T03:28:05.260Z,92.28
2023-01-19T03:30:39.354Z,92.14
2023-01-19T03:33:15.623Z,92.88
2023-01-19T03:35:52.258Z,93.07
2023-01-19T03:38:25.783Z,92.98
2023-01-19T03:41:01.865Z,93.19
2023-01-19T03:43:34.937Z,93.18
2023-01-19T03:46:09.503Z,93.40
2023-01-19T03:48:40.597Z,93.48
2023-01-19T03:51:11.272Z,92.58
2023-01-19T03:53:38.753Z,92.88
2023-01-19T03:56:09.800Z,91.65
2023-01-19T03:58:39.823Z,93.88
2023-01-19T04:01:07.179Z,93.99
2023-01-19T04:03:34.458Z,94.17
2023-01-19T04:06:01.678Z,93.10
2023-01-19T04:08:29.024Z,94.11
2023-01-19T04:10:58.146Z,94.30
2023-01-19T04:13:30.286Z,94.03
2023-01-19T04:16:07.187Z,94.46
2023-01-19T04:18:35.004Z,93.84
2023-01-19T04:21:03.820Z,93.58
2023-01-19T04:23:34.131Z,94.01
2023-01-19T04:26:08.283Z,93.14
2023-01-19T04:28:37.427Z,93.31
2023-01-19T04:31:06.154Z,94.08
2023-01-19T04:33:34.089Z,93.69
2023-01-19T04:36:02.254Z,93.74
2023-01-19T04:38:31.218Z,94.53
2023-01-19T04:40:58.415Z,94.48
2023-01-19T04:43:25.676Z,94.76
2023-01-19T04:45:53.150Z,92.82
2023-01-19T04:48:20.568Z,93.61
2023-01-19T04:50:47.833Z,93.82
2023-01-19T04:53:18.738Z,94.68
2023-01-19T04:55:46.955Z,94.85
2023-01-19T04:58:14.456Z,94.62
2023-01-19T05:00:41.673Z,95.83
2023-01-19T05:03:11.367Z,94.22
2023-01-19T05:05:38.836Z,94.83
2023-01-19T05:08:09.144Z,95.33
2023-01-19T05:10:36.872Z,95.13
2023-01-19T05:13:04.582Z,95.19
2023-01-19T05:15:31.705Z,94.89
2023-01-19T05:17:58.920Z,94.47
2023-01-19T05:20:26.247Z,94.13
2023-01-19T05:22:53.852Z,94.06
2023-01-19T05:25:21.341Z,94.42
2023-01-19T05:27:48.757Z,93.97
2023-01-19T05:30:19.598Z,93.89
2023-01-19T05:32:46.925Z,94.11
2023-01-19T05:35:15.396Z,93.56
2023-01-19T05:37:44.661Z,93.12
2023-01-19T05:40:33.649Z,92.33
2023-01-19T05:43:02.608Z,94.38
2023-01-19T05:45:29.825Z,93.46
2023-01-19T05:47:57.435Z,93.10
2023-01-19T05:50:24.595Z,93.75
2023-01-19T05:52:53.573Z,93.71
2023-01-19T05:55:22.545Z,93.83
2023-01-19T05:57:49.723Z,94.18
2023-01-19T06:00:17.076Z,92.38
2023-01-19T06:02:44.386Z,92.09
2023-01-19T06:05:11.520Z,93.06
2023-01-19T06:07:38.575Z,94.34
2023-01-19T06:10:39.663Z,93.83
2023-01-19T06:13:07.255Z,92.28
2023-01-19T06:15:34.541Z,93.87
2023-01-19T06:18:01.785Z,94.46
2023-01-19T06:20:29.117Z,94.31
2023-01-19T06:22:59.453Z,93.73
2023-01-19T06:25:26.799Z,93.95
2023-01-19T06:27:54.258Z,94.41
2023-01-19T06:30:21.584Z,94.33
2023-01-19T06:32:48.777Z,94.09
2023-01-19T06:35:16.041Z,93.61
2023-01-19T06:37:43.175Z,93.84
2023-01-19T06:40:12.464Z,93.27
2023-01-19T06:42:40.487Z,94.00
2023-01-19T06:45:09.942Z,93.95
2023-01-19T06:47:37.852Z,94.96
2023-01-19T06:50:05.261Z,94.07
2023-01-19T06:52:42.769Z,94.55
2023-01-19T06:55:11.425Z,94.25
2023-01-19T06:57:39.272Z,94.70
2023-01-19T07:00:09.226Z,94.78
2023-01-19T07:02:37.442Z,94.75
2023-01-19T07:05:07.282Z,94.23
2023-01-19T07:07:34.368Z,94.22
2023-01-19T07:10:01.539Z,94.31
2023-01-19T07:12:31.601Z,94.08
2023-01-19T07:14:58.696Z,94.09
2023-01-19T07:17:28.773Z,94.15
2023-01-19T07:19:56.032Z,94.10
2023-01-19T07:22:23.330Z,94.17
2023-01-19T07:24:50.632Z,93.69
2023-01-19T07:27:18.177Z,93.47
2023-01-19T07:29:45.568Z,94.83
2023-01-19T07:32:13.280Z,95.10
2023-01-19T07:34:40.671Z,94.06
2023-01-19T07:37:08.058Z,94.77
2023-01-19T07:39:36.891Z,94.71
2023-01-19T07:42:04.616Z,94.23
2023-01-19T07:44:31.844Z,93.62
2023-01-19T07:46:59.946Z,94.05
2023-01-19T07:50:05.837Z,95.02
2023-01-19T07:52:32.959Z,94.65
2023-01-19T07:55:00.123Z,94.10
2023-01-19T07:57:30.088Z,94.25
2023-01-19T07:59:57.005Z,92.96
2023-01-19T08:02:24.180Z,93.25
2023-01-19T08:04:51.027Z,93.80
2023-01-19T08:07:18.348Z,94.26
2023-01-19T08:09:45.197Z,94.94
2023-01-19T08:12:12.563Z,94.41
2023-01-19T08:14:48.898Z,94.70
2023-01-19T08:17:15.900Z,94.81
2023-01-19T08:19:43.585Z,95.08
2023-01-19T08:22:10.575Z,95.03
2023-01-19T08:24:37.659Z,95.30
2023-01-19T08:27:05.088Z,95.09
2023-01-19T08:29:33.959Z,95.50
2023-01-19T08:32:02.984Z,94.63
2023-01-19T08:34:31.208Z,94.96
2023-01-19T08:36:58.972Z,94.52
2023-01-19T08:39:25.961Z,94.29
2023-01-19T08:41:52.868Z,93.84
2023-01-19T08:44:19.903Z,94.12
2023-01-19T08:46:47.481Z,94.60
2023-01-19T08:49:14.386Z,94.13
2023-01-19T08:51:41.337Z,94.03
2023-01-19T08:54:08.203Z,93.99
2023-01-19T08:56:35.042Z,94.79
2023-01-19T08:59:11.877Z,95.01
2023-01-19T09:01:41.523Z,95.07
2023-01-19T09:04:08.675Z,94.37
2023-01-19T09:06:35.576Z,94.55
2023-01-19T09:09:02.773Z,94.25
2023-01-19T09:11:31.200Z,94.40
2023-01-19T09:13:57.945Z,93.88
2023-01-19T09:16:27.217Z,93.95
2023-01-19T09:18:54.416Z,93.83
2023-01-19T09:21:21.285Z,93.46
2023-01-19T09:23:49.634Z,93.58
2023-01-19T09:26:16.779Z,94.00
2023-01-19T09:28:43.705Z,93.28
2023-01-19T09:31:10.842Z,93.90
2023-01-19T09:33:38.043Z,93.13
2023-01-19T09:36:05.111Z,92.98
2023-01-19T09:38:33.156Z,92.80
2023-01-19T09:41:01.373Z,93.08
2023-01-19T09:43:54.643Z,93.03
2023-01-19T09:46:30.349Z,93.38
2023-01-19T09:48:59.764Z,92.33
2023-01-19T09:51:35.085Z,91.92
2023-01-19T09:54:17.228Z,91.27
2023-01-19T09:56:46.156Z,89.64
2023-01-19T09:59:23.917Z,88.29
2023-01-19T10:02:23.872Z,90.03
2023-01-19T10:05:14.993Z,89.97
2023-01-19T10:08:03.947Z,91.32
2023-01-19T10:10:41.205Z,90.52
2023-01-19T10:13:44.870Z,90.71
2023-01-19T10:16:31.693Z,90.88
2023-01-19T10:19:13.073Z,91.27
2023-01-19T10:21:44.863Z,90.65
2023-01-19T10:24:20.388Z,90.42
2023-01-19T10:26:51.696Z,90.57
2023-01-19T10:29:34.905Z,90.17
2023-01-19T10:32:09.115Z,89.66
2023-01-19T10:34:36.952Z,90.15
2023-01-19T10:37:17.562Z,90.82
2023-01-19T10:39:54.055Z,89.96
2023-01-19T10:42:21.240Z,89.97
2023-01-19T10:44:49.809Z,89.83
2023-01-19T10:47:19.265Z,88.02
2023-01-19T10:49:48.145Z,85.95
2023-01-19T10:52:32.127Z,85.78
2023-01-19T10:55:00.673Z,86.27
2023-01-19T10:57:38.420Z,83.90
2023-01-19T11:00:08.102Z,84.40
2023-01-19T11:02:35.144Z,84.94
2023-01-19T11:05:31.857Z,85.80
2023-01-19T11:07:59.136Z,88.15
2023-01-19T11:10:28.171Z,87.08
2023-01-19T11:13:12.704Z,88.91
2023-01-19T11:15:55.045Z,88.20
2023-01-19T11:18:30.115Z,88.13
2023-01-19T11:21:02.433Z,88.13
2023-01-19T11:23:44.163Z,86.70
2023-01-19T11:26:16.479Z,86.79
2023-01-19T11:28:48.596Z,86.88
2023-01-19T11:31:15.425Z,86.47
2023-01-19T11:33:43.544Z,87.77
2023-01-19T11:36:21.906Z,87.54
2023-01-19T11:38:51.387Z,86.90
2023-01-19T11:41:20.025Z,86.77
2023-01-19T11:43:51.827Z,87.35
2023-01-19T11:46:19.272Z,87.17
2023-01-19T11:49:02.535Z,87.98
2023-01-19T11:52:04.844Z,86.88
2023-01-19T11:54:47.682Z,88.31
2023-01-19T11:57:17.371Z,86.79
2023-01-19T11:59:44.647Z,85.46
2023-01-19T12:02:24.596Z,86.61
2023-01-19T12:04:58.026Z,85.31
2023-01-19T12:07:30.673Z,84.59
2023-01-19T12:10:25.401Z,85.63
2023-01-19T12:12:53.744Z,85.77
2023-01-19T12:15:28.144Z,86.43
2023-01-19T12:18:00.966Z,82.80
2023-01-19T12:20:41.875Z,82.17
2023-01-19T12:23:11.829Z,81.23
2023-01-19T12:26:04.343Z,76.80
2023-01-19T12:28:35.163Z,80.32
2023-01-19T12:31:04.049Z,75.67
2023-01-19T12:33:40.630Z,74.44
2023-01-19T12:36:41.395Z,77.33
2023-01-19T12:39:19.936Z,74.93
2023-01-19T12:41:47.685Z,74.42
2023-01-19T12:44:20.315Z,75.66
2023-01-19T12:46:50.221Z,72.32
2023-01-19T12:49:40.603Z,73.34
2023-01-19T12:52:20.965Z,71.79
2023-01-19T12:54:57.587Z,73.43
2023-01-19T12:57:56.717Z,69.81
2023-01-19T13:00:23.611Z,72.10
2023-01-19T13:02:53.897Z,70.84
2023-01-19T13:05:46.026Z,71.51
2023-01-19T13:08:13.440Z,72.99
2023-01-19T13:11:12.765Z,70.79
2023-01-19T13:13:48.919Z,75.08
2023-01-19T13:16:18.894Z,73.05
2023-01-19T13:18:48.966Z,72.91
2023-01-19T13:21:36.090Z,72.21
2023-01-19T13:24:08.402Z,72.49
2023-01-19T13:26:42.840Z,71.89
2023-01-19T13:29:17.186Z,71.25
2023-01-19T13:31:46.048Z,68.47
2023-01-19T13:34:17.673Z,68.99
2023-01-19T13:36:47.040Z,67.91
2023-01-19T13:39:18.338Z,69.82
2023-01-19T13:41:47.320Z,72.84
2023-01-19T13:44:21.991Z,70.21
2023-01-19T13:46:50.520Z,70.05
2023-01-19T13:49:29.848Z,71.16
2023-01-19T13:52:21.268Z,69.56
2023-01-19T13:54:53.173Z,71.63
2023-01-19T13:57:23.431Z,71.65
2023-01-19T14:00:12.114Z,72.02
2023-01-19T14:02:42.718Z,71.92
2023-01-19T14:05:21.901Z,72.57
2023-01-19T14:07:48.995Z,71.58
2023-01-19T14:10:16.988Z,72.80
2023-01-19T14:12:58.642Z,73.16
2023-01-19T14:15:26.940Z,72.53
2023-01-19T14:18:10.363Z,71.36
2023-01-19T14:20:37.896Z,72.73
2023-01-19T14:23:06.825Z,70.76
2023-01-19T14:25:36.411Z,72.45
2023-01-19T14:28:28.737Z,72.87
2023-01-19T14:31:01.604Z,72.88
2023-01-19T14:33:48.125Z,72.83
2023-01-19T14:36:17.571Z,74.54
2023-01-19T14:38:46.324Z,74.91
2023-01-19T14:41:40.930Z,75.00
2023-01-19T14:44:10.715Z,73.85
2023-01-19T14:46:38.796Z,74.28
2023-01-19T14:49:06.828Z,74.30
2023-01-19T14:51:33.977Z,74.47
2023-01-19T14:54:02.993Z,75.02
2023-01-19T14:56:32.760Z,74.21
2023-01-19T14:59:01.683Z,75.15
2023-01-19T15:01:29.134Z,75.32
2023-01-19T15:03:57.071Z,73.72
2023-01-19T15:06:26.269Z,73.35
2023-01-19T15:08:54.404Z,74.08
2023-01-19T15:11:30.140Z,73.00
2023-01-19T15:13:57.612Z,73.51
2023-01-19T15:16:25.365Z,74.63
2023-01-19T15:18:52.922Z,72.74
2023-01-19T15:21:23.624Z,72.30
2023-01-19T15:23:50.771Z,73.30
2023-01-19T15:26:20.907Z,73.33
2023-01-19T15:28:49.753Z,73.27
2023-01-19T15:31:19.557Z,72.81
2023-01-19T15:33:46.555Z,73.58
2023-01-19T15:36:19.172Z,73.85
2023-01-19T15:38:47.068Z,73.28
2023-01-19T15:41:18.571Z,73.85
2023-01-19T15:43:45.514Z,73.93
2023-01-19T15:46:16.038Z,73.85
2023-01-19T15:48:43.074Z,74.15
2023-01-19T15:51:15.096Z,73.77
2023-01-19T15:53:42.561Z,74.14
2023-01-19T15:56:16.647Z,74.49
2023-01-19T15:58:43.805Z,74.71
2023-01-19T16:01:17.764Z,74.60
2023-01-19T16:03:45.381Z,74.46
2023-01-19T16:06:13.017Z,74.98
2023-01-19T16:08:40.031Z,75.48
2023-01-19T16:11:12.600Z,74.34
2023-01-19T16:13:40.092Z,75.63
2023-01-19T16:16:18.955Z,74.20
2023-01-19T16:18:46.278Z,74.45
2023-01-19T16:21:13.163Z,74.76
2023-01-19T16:23:40.172Z,76.17
2023-01-19T16:26:23.041Z,76.34
2023-01-19T16:28:49.887Z,76.23
2023-01-19T16:31:16.965Z,76.50
2023-01-19T16:33:45.390Z,76.91
2023-01-19T16:36:30.563Z,77.00
2023-01-19T16:39:26.840Z,76.99
2023-01-19T16:41:53.748Z,77.44
2023-01-19T16:44:20.592Z,76.94
2023-01-19T16:46:49.944Z,77.17
2023-01-19T16:49:22.577Z,77.62
2023-01-19T16:51:50.779Z,76.91
2023-01-19T16:54:20.592Z,77.55
2023-01-19T16:56:48.733Z,76.75
2023-01-19T16:59:17.035Z,77.29
2023-01-19T17:01:45.571Z,76.65
2023-01-19T17:04:13.566Z,77.00
2023-01-19T17:06:40.922Z,77.14
2023-01-19T17:09:09.579Z,77.13
2023-01-19T17:11:36.854Z,78.21
2023-01-19T17:14:21.945Z,78.09
2023-01-19T17:16:49.424Z,77.92
2023-01-19T17:19:18.964Z,78.76
2023-01-19T17:21:48.863Z,78.76
2023-01-19T17:24:16.704Z,78.87
2023-01-19T17:26:46.081Z,78.20
2023-01-19T17:29:12.885Z,78.84
2023-01-19T17:31:39.825Z,79.19
2023-01-19T17:34:07.242Z,79.46
2023-01-19T17:36:34.205Z,79.54
2023-01-19T17:39:06.153Z,79.42
2023-01-19T17:41:35.444Z,79.78
2023-01-19T17:44:04.012Z,80.00
2023-01-19T17:46:31.115Z,80.00
2023-01-19T17:49:01.904Z,80.48
2023-01-19T17:51:30.241Z,80.34
2023-01-19T17:53:58.039Z,81.09
2023-01-19T17:56:29.794Z,80.74
2023-01-19T17:58:58.266Z,80.41
2023-01-19T18:01:28.607Z,81.16
2023-01-19T18:03:55.991Z,81.80
2023-01-19T18:06:23.108Z,82.17
2023-01-19T18:08:50.677Z,81.84
2023-01-19T18:11:19.814Z,82.00
2023-01-19T18:13:48.894Z,82.40
2023-01-19T18:16:20.663Z,81.91
2023-01-19T18:18:49.877Z,81.88
2023-01-19T18:21:17.933Z,82.12
2023-01-19T18:23:46.069Z,82.22
2023-01-19T18:26:15.533Z,81.95
2023-01-19T18:28:42.436Z,82.51
2023-01-19T18:31:12.311Z,82.97
2023-01-19T18:33:40.253Z,82.97
2023-01-19T18:36:08.207Z,82.43
2023-01-19T18:38:36.543Z,82.88
2023-01-19T18:41:06.189Z,82.95
2023-01-19T18:43:33.371Z,82.85
2023-01-19T18:46:00.529Z,82.70
2023-01-19T18:48:27.666Z,82.98
2023-01-19T18:50:54.997Z,82.65
2023-01-19T18:53:22.264Z,82.73
2023-01-19T18:55:58.048Z,82.52
2023-01-19T18:58:28.765Z,82.49
2023-01-19T19:01:00.177Z,82.48
2023-01-19T19:03:27.450Z,82.84
2023-01-19T19:05:54.540Z,82.72
2023-01-19T19:08:21.497Z,82.54
2023-01-19T19:10:48.531Z,82.58
2023-01-19T19:13:17.426Z,83.27
2023-01-19T19:15:44.635Z,83.47
2023-01-19T19:18:14.202Z,83.64
2023-01-19T19:20:43.386Z,83.23
2023-01-19T19:23:11.767Z,83.31
2023-01-19T19:25:38.690Z,83.15
2023-01-19T19:28:05.748Z,82.77
2023-01-19T19:30:35.033Z,82.67
2023-01-19T19:33:02.006Z,82.53
2023-01-19T19:35:29.144Z,83.38
2023-01-19T19:37:57.849Z,82.89
2023-01-19T19:40:28.527Z,82.99
2023-01-19T19:42:58.422Z,83.08
2023-01-19T19:45:25.764Z,82.82
2023-01-19T19:47:52.568Z,82.07
2023-01-19T19:50:19.620Z,82.34
2023-01-19T19:52:46.555Z,82.52
2023-01-19T19:55:13.862Z,82.90
2023-01-19T19:57:40.968Z,82.94
2023-01-19T20:00:08.993Z,83.68
2023-01-19T20:02:36.333Z,84.44
2023-01-19T20:05:03.508Z,84.30
2023-01-19T20:07:30.680Z,84.77
2023-01-19T20:09:57.600Z,84.12
2023-01-19T20:12:24.553Z,83.65
2023-01-19T20:14:51.353Z,84.03
2023-01-19T20:17:19.366Z,84.45
2023-01-19T20:19:47.728Z,83.46
2023-01-19T20:22:15.397Z,83.32
2023-01-19T20:24:42.706Z,83.17
2023-01-19T20:27:09.750Z,82.39
2023-01-19T20:29:36.702Z,82.16
2023-01-19T20:32:03.591Z,81.34
2023-01-19T20:34:33.470Z,80.80
2023-01-19T20:37:01.912Z,80.91
2023-01-19T20:39:30.304Z,80.70
2023-01-19T20:41:57.157Z,80.32
2023-01-19T20:44:25.886Z,79.72
2023-01-19T20:46:54.428Z,79.91
2023-01-19T20:49:21.822Z,79.48
2023-01-19T20:51:50.062Z,80.03
2023-01-19T20:54:18.857Z,80.00
2023-01-19T20:56:45.766Z,80.39
2023-01-19T20:59:13.015Z,80.56
2023-01-19T21:01:41.044Z,81.29
2023-01-19T21:04:08.765Z,81.53
2023-01-19T21:06:36.114Z,81.67
2023-01-19T21:09:03.136Z,81.26
2023-01-19T21:11:30.066Z,80.77
2023-01-19T21:13:56.885Z,80.48
2023-01-19T21:16:25.875Z,80.38
2023-01-19T21:18:53.333Z,80.01
2023-01-19T21:21:29.858Z,79.82
2023-01-19T21:23:59.459Z,79.91
2023-01-19T21:26:26.374Z,79.85
2023-01-19T21:28:53.224Z,80.66
2023-01-19T21:31:23.145Z,81.32
2023-01-19T21:33:53.988Z,81.42
2023-01-19T21:36:22.710Z,82.40
2023-01-19T21:38:51.614Z,81.08
2023-01-19T21:41:18.849Z,82.35
2023-01-19T21:43:46.447Z,83.24
2023-01-19T21:46:18.647Z,83.22
2023-01-19T21:48:46.238Z,83.37
2023-01-19T21:51:14.854Z,82.94
2023-01-19T21:53:42.159Z,82.98
2023-01-19T21:56:10.243Z,83.53
2023-01-19T21:58:37.822Z,83.25
2023-01-19T22:01:09.841Z,83.89
2023-01-19T22:03:36.659Z,82.91
2023-01-19T22:06:05.925Z,82.97
2023-01-19T22:08:33.751Z,82.73
2023-01-19T22:11:08.174Z,82.18
2023-01-19T22:13:36.416Z,82.43
2023-01-19T22:16:04.849Z,82.52
2023-01-19T22:18:31.751Z,81.60
2023-01-19T22:21:11.364Z,82.06
2023-01-19T22:23:38.825Z,83.05
2023-01-19T22:26:06.259Z,81.98
2023-01-19T22:28:33.755Z,83.26
2023-01-19T22:31:15.495Z,83.13
2023-01-19T22:33:43.401Z,85.01
2023-01-19T22:36:20.121Z,83.03
2023-01-19T22:38:52.383Z,83.83
2023-01-19T22:41:25.585Z,83.33
2023-01-19T22:43:57.656Z,81.73
2023-01-19T22:46:26.678Z,81.58
2023-01-19T22:48:54.433Z,80.59
2023-01-19T22:51:22.943Z,80.85
2023-01-19T22:53:49.740Z,80.41
2023-01-19T22:56:19.525Z,81.04
2023-01-19T22:58:47.307Z,80.57
2023-01-19T23:01:17.538Z,80.12
2023-01-19T23:03:44.419Z,80.89
2023-01-19T23:06:17.303Z,80.52
2023-01-19T23:08:44.808Z,81.91
2023-01-19T23:11:15.439Z,81.67
2023-01-19T23:13:43.019Z,81.74
2023-01-19T23:16:11.191Z,83.48
2023-01-19T23:18:38.503Z,81.88
2023-01-19T23:21:09.487Z,82.64
2023-01-19T23:23:36.769Z,80.90
2023-01-19T23:26:07.218Z,80.10
2023-01-19T23:28:34.633Z,81.62
2023-01-19T23:31:12.579Z,80.31
2023-01-19T23:33:39.707Z,79.56
2023-01-19T23:36:06.917Z,79.50
2023-01-19T23:38:33.778Z,79.61
2023-01-19T23:41:00.591Z,79.79
2023-01-19T23:43:27.374Z,79.48
2023-01-19T23:45:54.280Z,81.13
2023-01-19T23:48:21.112Z,82.91
2023-01-19T23:50:47.906Z,80.54
2023-01-19T23:53:14.718Z,79.66
2023-01-19T23:55:42.098Z,81.91
2023-01-19T23:58:09.010Z,83.67
